sensor_id;sensor_type;location;lat;lon;timestamp;P1;P2;P0
12542;PMS3003;6337;49.556;25.594;2022-09-09T00:02:58;13.23;6.10;
12542;PMS3003;6337;49.556;25.594;2022-09-09T00:05:29;10.73;5.97;
12542;PMS3003;6337;49.556;25.594;2022-09-09T00:07:59;12.87;6.13;
12542;PMS3003;6337;49.556;25.594;2022-09-09T00:10:29;11.00;6.40;
12542;PMS3003;6337;49.556;25.594;2022-09-09T00:12:59;11.20;6.03;
12542;PMS3003;6337;49.556;25.594;2022-09-09T00:15:29;12.67;6.50;
12542;PMS3003;6337;49.556;25.594;2022-09-09T00:18:01;12.57;5.90;
12542;PMS3003;6337;49.556;25.594;2022-09-09T00:20:32;14.70;6.03;
12542;PMS3003;6337;49.556;25.594;2022-09-09T00:23:01;9.40;5.27;
12542;PMS3003;6337;49.556;25.594;2022-09-09T00:25:59;14.60;5.70;
12542;PMS3003;6337;49.556;25.594;2022-09-09T00:28:30;13.07;7.07;
12542;PMS3003;6337;49.556;25.594;2022-09-09T00:31:00;12.33;5.73;
12542;PMS3003;6337;49.556;25.594;2022-09-09T00:33:30;12.77;5.97;
12542;PMS3003;6337;49.556;25.594;2022-09-09T00:35:58;10.23;6.10;
12542;PMS3003;6337;49.556;25.594;2022-09-09T00:38:28;8.83;5.00;
12542;PMS3003;6337;49.556;25.594;2022-09-09T00:40:58;8.23;5.70;
12542;PMS3003;6337;49.556;25.594;2022-09-09T00:43:28;6.70;5.00;
12542;PMS3003;6337;49.556;25.594;2022-09-09T00:48:52;8.63;5.83;
12542;PMS3003;6337;49.556;25.594;2022-09-09T00:51:23;8.70;5.40;
12542;PMS3003;6337;49.556;25.594;2022-09-09T00:53:58;7.27;5.57;
12542;PMS3003;6337;49.556;25.594;2022-09-09T00:56:28;16.43;6.23;
12542;PMS3003;6337;49.556;25.594;2022-09-09T00:59:00;12.10;5.60;
12542;PMS3003;6337;49.556;25.594;2022-09-09T01:01:29;8.27;5.13;
12542;PMS3003;6337;49.556;25.594;2022-09-09T01:03:59;12.93;6.10;
12542;PMS3003;6337;49.556;25.594;2022-09-09T01:06:28;8.60;5.30;
12542;PMS3003;6337;49.556;25.594;2022-09-09T01:09:04;9.17;5.87;
12542;PMS3003;6337;49.556;25.594;2022-09-09T01:11:37;8.47;5.37;
12542;PMS3003;6337;49.556;25.594;2022-09-09T01:14:10;10.03;4.80;
12542;PMS3003;6337;49.556;25.594;2022-09-09T01:16:41;11.90;5.70;
12542;PMS3003;6337;49.556;25.594;2022-09-09T01:19:11;11.73;5.10;
12542;PMS3003;6337;49.556;25.594;2022-09-09T01:21:43;11.33;5.77;
12542;PMS3003;6337;49.556;25.594;2022-09-09T01:24:20;10.23;6.47;
12542;PMS3003;6337;49.556;25.594;2022-09-09T01:27:15;14.03;7.23;
12542;PMS3003;6337;49.556;25.594;2022-09-09T01:29:45;11.53;5.80;
12542;PMS3003;6337;49.556;25.594;2022-09-09T01:34:58;9.77;5.80;
12542;PMS3003;6337;49.556;25.594;2022-09-09T01:37:26;12.40;5.90;
12542;PMS3003;6337;49.556;25.594;2022-09-09T01:39:53;15.13;5.97;
12542;PMS3003;6337;49.556;25.594;2022-09-09T01:42:22;12.90;6.53;
12542;PMS3003;6337;49.556;25.594;2022-09-09T01:44:50;17.17;7.40;
12542;PMS3003;6337;49.556;25.594;2022-09-09T01:47:19;8.20;5.80;
12542;PMS3003;6337;49.556;25.594;2022-09-09T01:49:46;11.60;6.10;
12542;PMS3003;6337;49.556;25.594;2022-09-09T01:52:14;9.10;5.70;
12542;PMS3003;6337;49.556;25.594;2022-09-09T01:54:41;8.90;6.30;
12542;PMS3003;6337;49.556;25.594;2022-09-09T01:57:11;14.70;6.40;
12542;PMS3003;6337;49.556;25.594;2022-09-09T01:59:50;15.37;6.63;
12542;PMS3003;6337;49.556;25.594;2022-09-09T02:02:23;26.53;7.07;
12542;PMS3003;6337;49.556;25.594;2022-09-09T02:04:52;11.97;6.97;
12542;PMS3003;6337;49.556;25.594;2022-09-09T02:07:28;15.73;6.67;
12542;PMS3003;6337;49.556;25.594;2022-09-09T02:09:59;14.90;6.63;
12542;PMS3003;6337;49.556;25.594;2022-09-09T02:12:28;10.33;5.90;
12542;PMS3003;6337;49.556;25.594;2022-09-09T02:14:59;11.73;6.97;
12542;PMS3003;6337;49.556;25.594;2022-09-09T02:17:29;10.77;5.73;
12542;PMS3003;6337;49.556;25.594;2022-09-09T02:19:59;11.17;6.13;
12542;PMS3003;6337;49.556;25.594;2022-09-09T02:22:27;14.20;7.27;
12542;PMS3003;6337;49.556;25.594;2022-09-09T02:24:59;19.87;7.13;
12542;PMS3003;6337;49.556;25.594;2022-09-09T02:27:27;8.60;6.37;
12542;PMS3003;6337;49.556;25.594;2022-09-09T02:29:54;17.30;7.00;
12542;PMS3003;6337;49.556;25.594;2022-09-09T02:32:24;16.63;7.00;
12542;PMS3003;6337;49.556;25.594;2022-09-09T02:34:53;12.70;6.03;
12542;PMS3003;6337;49.556;25.594;2022-09-09T02:37:22;13.73;6.07;
12542;PMS3003;6337;49.556;25.594;2022-09-09T02:39:53;15.33;7.70;
12542;PMS3003;6337;49.556;25.594;2022-09-09T02:42:20;10.60;6.70;
12542;PMS3003;6337;49.556;25.594;2022-09-09T02:44:49;11.40;6.93;
12542;PMS3003;6337;49.556;25.594;2022-09-09T02:47:19;10.63;7.00;
12542;PMS3003;6337;49.556;25.594;2022-09-09T02:49:54;15.53;7.50;
12542;PMS3003;6337;49.556;25.594;2022-09-09T02:52:26;13.47;6.60;
12542;PMS3003;6337;49.556;25.594;2022-09-09T02:54:54;18.30;7.13;
12542;PMS3003;6337;49.556;25.594;2022-09-09T02:57:25;15.43;7.27;
12542;PMS3003;6337;49.556;25.594;2022-09-09T02:59:56;15.73;7.97;
12542;PMS3003;6337;49.556;25.594;2022-09-09T03:02:24;20.93;7.87;
12542;PMS3003;6337;49.556;25.594;2022-09-09T03:04:53;14.63;7.30;
12542;PMS3003;6337;49.556;25.594;2022-09-09T03:07:20;21.20;7.23;
12542;PMS3003;6337;49.556;25.594;2022-09-09T03:09:47;11.23;6.93;
12542;PMS3003;6337;49.556;25.594;2022-09-09T03:12:15;16.07;7.73;
12542;PMS3003;6337;49.556;25.594;2022-09-09T03:14:42;17.13;7.57;
12542;PMS3003;6337;49.556;25.594;2022-09-09T03:17:11;11.87;7.80;
12542;PMS3003;6337;49.556;25.594;2022-09-09T03:19:38;15.83;8.93;
12542;PMS3003;6337;49.556;25.594;2022-09-09T03:22:07;15.60;8.60;
12542;PMS3003;6337;49.556;25.594;2022-09-09T03:24:36;12.67;8.17;
12542;PMS3003;6337;49.556;25.594;2022-09-09T03:27:03;15.53;8.70;
12542;PMS3003;6337;49.556;25.594;2022-09-09T03:29:31;13.10;8.53;
12542;PMS3003;6337;49.556;25.594;2022-09-09T03:31:59;20.57;7.97;
12542;PMS3003;6337;49.556;25.594;2022-09-09T03:34:26;16.47;8.70;
12542;PMS3003;6337;49.556;25.594;2022-09-09T03:36:54;13.27;7.07;
12542;PMS3003;6337;49.556;25.594;2022-09-09T03:39:23;16.20;8.90;
12542;PMS3003;6337;49.556;25.594;2022-09-09T03:41:50;15.73;8.10;
12542;PMS3003;6337;49.556;25.594;2022-09-09T03:44:17;14.10;7.57;
12542;PMS3003;6337;49.556;25.594;2022-09-09T03:46:45;14.33;7.67;
12542;PMS3003;6337;49.556;25.594;2022-09-09T03:49:12;9.70;7.73;
12542;PMS3003;6337;49.556;25.594;2022-09-09T03:51:40;12.10;7.87;
12542;PMS3003;6337;49.556;25.594;2022-09-09T03:54:07;13.13;7.60;
12542;PMS3003;6337;49.556;25.594;2022-09-09T03:56:37;17.57;7.43;
12542;PMS3003;6337;49.556;25.594;2022-09-09T03:59:06;14.70;7.90;
12542;PMS3003;6337;49.556;25.594;2022-09-09T04:01:34;18.80;8.97;
12542;PMS3003;6337;49.556;25.594;2022-09-09T04:04:01;13.57;9.70;
12542;PMS3003;6337;49.556;25.594;2022-09-09T04:06:29;15.87;9.13;
12542;PMS3003;6337;49.556;25.594;2022-09-09T04:08:56;12.97;8.53;
12542;PMS3003;6337;49.556;25.594;2022-09-09T04:11:23;14.67;8.33;
12542;PMS3003;6337;49.556;25.594;2022-09-09T04:13:52;15.57;8.23;
12542;PMS3003;6337;49.556;25.594;2022-09-09T04:16:20;14.40;8.00;
12542;PMS3003;6337;49.556;25.594;2022-09-09T04:18:47;15.80;8.07;
12542;PMS3003;6337;49.556;25.594;2022-09-09T04:21:14;15.53;7.30;
12542;PMS3003;6337;49.556;25.594;2022-09-09T04:23:42;13.97;7.87;
12542;PMS3003;6337;49.556;25.594;2022-09-09T04:28:59;20.80;9.70;
12542;PMS3003;6337;49.556;25.594;2022-09-09T04:31:27;14.07;9.60;
12542;PMS3003;6337;49.556;25.594;2022-09-09T04:33:56;14.17;8.70;
12542;PMS3003;6337;49.556;25.594;2022-09-09T04:36:27;15.40;8.63;
12542;PMS3003;6337;49.556;25.594;2022-09-09T04:38:54;17.20;9.27;
12542;PMS3003;6337;49.556;25.594;2022-09-09T04:41:21;14.23;7.90;
12542;PMS3003;6337;49.556;25.594;2022-09-09T04:43:49;16.07;8.63;
12542;PMS3003;6337;49.556;25.594;2022-09-09T04:46:20;18.33;8.43;
12542;PMS3003;6337;49.556;25.594;2022-09-09T04:48:48;11.43;7.73;
12542;PMS3003;6337;49.556;25.594;2022-09-09T04:51:16;21.17;10.37;
12542;PMS3003;6337;49.556;25.594;2022-09-09T04:53:43;13.00;8.80;
12542;PMS3003;6337;49.556;25.594;2022-09-09T04:56:12;14.83;7.67;
12542;PMS3003;6337;49.556;25.594;2022-09-09T04:58:40;14.40;7.63;
12542;PMS3003;6337;49.556;25.594;2022-09-09T05:01:08;16.67;8.80;
12542;PMS3003;6337;49.556;25.594;2022-09-09T05:03:37;27.90;10.13;
12542;PMS3003;6337;49.556;25.594;2022-09-09T05:06:06;16.27;8.97;
12542;PMS3003;6337;49.556;25.594;2022-09-09T05:08:35;16.80;9.50;
12542;PMS3003;6337;49.556;25.594;2022-09-09T05:11:03;24.00;8.80;
12542;PMS3003;6337;49.556;25.594;2022-09-09T05:13:30;19.83;9.67;
12542;PMS3003;6337;49.556;25.594;2022-09-09T05:15:57;21.60;9.37;
12542;PMS3003;6337;49.556;25.594;2022-09-09T05:18:25;16.97;9.77;
12542;PMS3003;6337;49.556;25.594;2022-09-09T05:20:56;20.17;10.60;
12542;PMS3003;6337;49.556;25.594;2022-09-09T05:23:25;25.03;10.90;
12542;PMS3003;6337;49.556;25.594;2022-09-09T05:25:56;24.17;11.70;
12542;PMS3003;6337;49.556;25.594;2022-09-09T05:28:24;19.27;10.80;
12542;PMS3003;6337;49.556;25.594;2022-09-09T05:30:56;19.07;11.33;
12542;PMS3003;6337;49.556;25.594;2022-09-09T05:33:23;18.10;11.80;
12542;PMS3003;6337;49.556;25.594;2022-09-09T05:35:57;28.50;12.23;
12542;PMS3003;6337;49.556;25.594;2022-09-09T05:38:25;25.23;10.83;
12542;PMS3003;6337;49.556;25.594;2022-09-09T05:40:52;23.97;12.00;
12542;PMS3003;6337;49.556;25.594;2022-09-09T05:43:21;28.90;13.27;
12542;PMS3003;6337;49.556;25.594;2022-09-09T05:45:57;24.50;12.03;
12542;PMS3003;6337;49.556;25.594;2022-09-09T05:48:27;20.47;10.73;
12542;PMS3003;6337;49.556;25.594;2022-09-09T05:50:54;31.43;11.43;
12542;PMS3003;6337;49.556;25.594;2022-09-09T05:53:23;22.27;11.30;
12542;PMS3003;6337;49.556;25.594;2022-09-09T05:55:57;26.43;11.27;
12542;PMS3003;6337;49.556;25.594;2022-09-09T05:58:25;22.50;12.20;
12542;PMS3003;6337;49.556;25.594;2022-09-09T06:00:52;20.23;9.73;
12542;PMS3003;6337;49.556;25.594;2022-09-09T06:03:20;28.47;11.67;
12542;PMS3003;6337;49.556;25.594;2022-09-09T06:05:56;20.87;12.63;
12542;PMS3003;6337;49.556;25.594;2022-09-09T06:08:25;20.73;10.63;
12542;PMS3003;6337;49.556;25.594;2022-09-09T06:10:53;34.90;12.43;
12542;PMS3003;6337;49.556;25.594;2022-09-09T06:13:21;19.67;12.20;
12542;PMS3003;6337;49.556;25.594;2022-09-09T06:15:49;18.40;10.97;
12542;PMS3003;6337;49.556;25.594;2022-09-09T06:18:17;21.53;12.60;
12542;PMS3003;6337;49.556;25.594;2022-09-09T06:20:53;18.23;11.17;
12542;PMS3003;6337;49.556;25.594;2022-09-09T06:23:20;28.77;12.20;
12542;PMS3003;6337;49.556;25.594;2022-09-09T06:25:49;29.57;12.50;
12542;PMS3003;6337;49.556;25.594;2022-09-09T06:28:17;20.30;11.30;
12542;PMS3003;6337;49.556;25.594;2022-09-09T06:30:44;24.93;12.53;
12542;PMS3003;6337;49.556;25.594;2022-09-09T06:33:12;23.00;12.20;
12542;PMS3003;6337;49.556;25.594;2022-09-09T06:35:40;26.53;11.47;
12542;PMS3003;6337;49.556;25.594;2022-09-09T06:38:07;25.87;12.37;
12542;PMS3003;6337;49.556;25.594;2022-09-09T06:40:35;37.53;11.30;
12542;PMS3003;6337;49.556;25.594;2022-09-09T06:43:04;31.93;12.07;
12542;PMS3003;6337;49.556;25.594;2022-09-09T06:45:31;18.13;11.50;
12542;PMS3003;6337;49.556;25.594;2022-09-09T06:48:01;18.60;11.53;
12542;PMS3003;6337;49.556;25.594;2022-09-09T06:50:29;22.73;10.27;
12542;PMS3003;6337;49.556;25.594;2022-09-09T06:52:56;16.30;9.13;
12542;PMS3003;6337;49.556;25.594;2022-09-09T06:55:24;15.00;10.10;
12542;PMS3003;6337;49.556;25.594;2022-09-09T06:57:51;17.77;10.30;
12542;PMS3003;6337;49.556;25.594;2022-09-09T07:00:21;22.67;11.00;
12542;PMS3003;6337;49.556;25.594;2022-09-09T07:02:50;26.67;10.50;
12542;PMS3003;6337;49.556;25.594;2022-09-09T07:05:17;16.73;11.47;
12542;PMS3003;6337;49.556;25.594;2022-09-09T07:07:46;24.87;11.10;
12542;PMS3003;6337;49.556;25.594;2022-09-09T07:10:13;15.53;9.60;
12542;PMS3003;6337;49.556;25.594;2022-09-09T07:12:40;20.40;9.97;
12542;PMS3003;6337;49.556;25.594;2022-09-09T07:15:08;15.33;9.73;
12542;PMS3003;6337;49.556;25.594;2022-09-09T07:17:37;25.03;10.63;
12542;PMS3003;6337;49.556;25.594;2022-09-09T07:20:05;18.80;10.70;
12542;PMS3003;6337;49.556;25.594;2022-09-09T07:22:32;21.00;10.43;
12542;PMS3003;6337;49.556;25.594;2022-09-09T07:25:00;21.50;11.37;
12542;PMS3003;6337;49.556;25.594;2022-09-09T07:27:28;15.17;10.90;
12542;PMS3003;6337;49.556;25.594;2022-09-09T07:29:55;33.13;10.83;
12542;PMS3003;6337;49.556;25.594;2022-09-09T07:32:23;15.60;10.50;
12542;PMS3003;6337;49.556;25.594;2022-09-09T07:34:52;18.30;11.10;
12542;PMS3003;6337;49.556;25.594;2022-09-09T07:37:21;19.63;10.43;
12542;PMS3003;6337;49.556;25.594;2022-09-09T07:39:49;20.43;10.20;
12542;PMS3003;6337;49.556;25.594;2022-09-09T07:42:17;34.27;11.40;
12542;PMS3003;6337;49.556;25.594;2022-09-09T07:44:44;23.67;12.17;
12542;PMS3003;6337;49.556;25.594;2022-09-09T07:47:12;19.67;12.50;
12542;PMS3003;6337;49.556;25.594;2022-09-09T07:49:39;18.30;11.10;
12542;PMS3003;6337;49.556;25.594;2022-09-09T07:52:08;19.50;11.00;
12542;PMS3003;6337;49.556;25.594;2022-09-09T07:54:37;23.83;11.63;
12542;PMS3003;6337;49.556;25.594;2022-09-09T07:57:04;21.50;12.67;
12542;PMS3003;6337;49.556;25.594;2022-09-09T07:59:32;25.57;11.77;
12542;PMS3003;6337;49.556;25.594;2022-09-09T08:01:59;15.57;11.10;
12542;PMS3003;6337;49.556;25.594;2022-09-09T08:04:27;18.07;10.23;
12542;PMS3003;6337;49.556;25.594;2022-09-09T08:06:55;17.23;10.00;
12542;PMS3003;6337;49.556;25.594;2022-09-09T08:09:25;18.63;10.20;
12542;PMS3003;6337;49.556;25.594;2022-09-09T08:11:53;22.67;11.63;
12542;PMS3003;6337;49.556;25.594;2022-09-09T08:14:22;17.77;11.53;
12542;PMS3003;6337;49.556;25.594;2022-09-09T08:16:49;14.90;8.97;
12542;PMS3003;6337;49.556;25.594;2022-09-09T08:19:18;12.97;9.37;
12542;PMS3003;6337;49.556;25.594;2022-09-09T08:21:45;16.43;10.00;
12542;PMS3003;6337;49.556;25.594;2022-09-09T08:24:14;23.00;10.87;
12542;PMS3003;6337;49.556;25.594;2022-09-09T08:26:43;18.77;10.53;
12542;PMS3003;6337;49.556;25.594;2022-09-09T08:29:12;16.93;9.97;
12542;PMS3003;6337;49.556;25.594;2022-09-09T08:31:40;16.10;10.20;
12542;PMS3003;6337;49.556;25.594;2022-09-09T08:34:08;21.60;10.80;
12542;PMS3003;6337;49.556;25.594;2022-09-09T08:36:36;15.90;9.83;
12542;PMS3003;6337;49.556;25.594;2022-09-09T08:39:04;17.17;10.50;
12542;PMS3003;6337;49.556;25.594;2022-09-09T08:41:41;18.33;11.10;
12542;PMS3003;6337;49.556;25.594;2022-09-09T08:44:13;20.73;10.97;
12542;PMS3003;6337;49.556;25.594;2022-09-09T08:46:44;19.27;10.83;
12542;PMS3003;6337;49.556;25.594;2022-09-09T08:49:17;25.57;11.93;
12542;PMS3003;6337;49.556;25.594;2022-09-09T08:51:46;29.43;13.87;
12542;PMS3003;6337;49.556;25.594;2022-09-09T08:54:15;23.10;12.60;
12542;PMS3003;6337;49.556;25.594;2022-09-09T08:56:43;20.93;13.10;
12542;PMS3003;6337;49.556;25.594;2022-09-09T08:59:13;19.93;12.10;
12542;PMS3003;6337;49.556;25.594;2022-09-09T09:01:44;28.03;14.30;
12542;PMS3003;6337;49.556;25.594;2022-09-09T09:04:17;25.47;12.70;
12542;PMS3003;6337;49.556;25.594;2022-09-09T09:06:50;19.93;12.40;
12542;PMS3003;6337;49.556;25.594;2022-09-09T09:09:23;24.27;13.27;
12542;PMS3003;6337;49.556;25.594;2022-09-09T09:11:53;18.60;11.03;
12542;PMS3003;6337;49.556;25.594;2022-09-09T09:14:27;17.17;12.43;
12542;PMS3003;6337;49.556;25.594;2022-09-09T09:16:56;22.00;12.37;
12542;PMS3003;6337;49.556;25.594;2022-09-09T09:19:24;15.40;12.03;
12542;PMS3003;6337;49.556;25.594;2022-09-09T09:21:54;16.40;12.27;
12542;PMS3003;6337;49.556;25.594;2022-09-09T09:24:24;17.67;10.97;
12542;PMS3003;6337;49.556;25.594;2022-09-09T09:26:54;19.87;13.33;
12542;PMS3003;6337;49.556;25.594;2022-09-09T09:29:23;22.53;13.70;
12542;PMS3003;6337;49.556;25.594;2022-09-09T09:31:54;18.90;13.37;
12542;PMS3003;6337;49.556;25.594;2022-09-09T09:34:22;17.53;12.77;
12542;PMS3003;6337;49.556;25.594;2022-09-09T09:36:52;24.00;14.20;
12542;PMS3003;6337;49.556;25.594;2022-09-09T09:39:24;19.60;12.00;
12542;PMS3003;6337;49.556;25.594;2022-09-09T09:41:52;19.50;13.53;
12542;PMS3003;6337;49.556;25.594;2022-09-09T09:44:23;19.00;12.70;
12542;PMS3003;6337;49.556;25.594;2022-09-09T09:46:53;30.80;13.90;
12542;PMS3003;6337;49.556;25.594;2022-09-09T09:49:20;20.70;14.80;
12542;PMS3003;6337;49.556;25.594;2022-09-09T09:51:48;18.93;12.90;
12542;PMS3003;6337;49.556;25.594;2022-09-09T09:54:18;18.07;12.63;
12542;PMS3003;6337;49.556;25.594;2022-09-09T09:56:49;29.37;12.30;
12542;PMS3003;6337;49.556;25.594;2022-09-09T09:59:24;22.90;13.10;
12542;PMS3003;6337;49.556;25.594;2022-09-09T10:02:10;19.90;13.10;
12542;PMS3003;6337;49.556;25.594;2022-09-09T10:04:40;21.30;12.57;
12542;PMS3003;6337;49.556;25.594;2022-09-09T10:07:10;21.13;12.80;
12542;PMS3003;6337;49.556;25.594;2022-09-09T10:09:38;19.50;13.23;
12542;PMS3003;6337;49.556;25.594;2022-09-09T10:12:08;19.70;12.83;
12542;PMS3003;6337;49.556;25.594;2022-09-09T10:14:40;19.70;11.57;
12542;PMS3003;6337;49.556;25.594;2022-09-09T10:17:16;21.03;12.83;
12542;PMS3003;6337;49.556;25.594;2022-09-09T10:19:50;20.53;12.97;
12542;PMS3003;6337;49.556;25.594;2022-09-09T10:22:24;27.90;14.00;
12542;PMS3003;6337;49.556;25.594;2022-09-09T10:24:56;20.27;14.07;
12542;PMS3003;6337;49.556;25.594;2022-09-09T10:27:27;28.70;14.07;
12542;PMS3003;6337;49.556;25.594;2022-09-09T10:30:01;26.80;15.10;
12542;PMS3003;6337;49.556;25.594;2022-09-09T10:32:40;19.03;14.53;
12542;PMS3003;6337;49.556;25.594;2022-09-09T10:35:22;18.60;12.00;
12542;PMS3003;6337;49.556;25.594;2022-09-09T10:40:37;17.07;12.70;
12542;PMS3003;6337;49.556;25.594;2022-09-09T10:43:10;21.37;12.83;
12542;PMS3003;6337;49.556;25.594;2022-09-09T10:45:41;23.00;13.07;
12542;PMS3003;6337;49.556;25.594;2022-09-09T10:48:18;30.03;15.97;
12542;PMS3003;6337;49.556;25.594;2022-09-09T10:50:53;18.47;12.60;
12542;PMS3003;6337;49.556;25.594;2022-09-09T10:53:24;24.83;13.93;
12542;PMS3003;6337;49.556;25.594;2022-09-09T10:55:56;23.33;13.90;
12542;PMS3003;6337;49.556;25.594;2022-09-09T10:58:27;21.27;12.63;
12542;PMS3003;6337;49.556;25.594;2022-09-09T11:00:59;23.87;12.77;
12542;PMS3003;6337;49.556;25.594;2022-09-09T11:03:33;26.27;13.87;
12542;PMS3003;6337;49.556;25.594;2022-09-09T11:06:06;17.80;11.30;
12542;PMS3003;6337;49.556;25.594;2022-09-09T11:08:38;22.00;13.23;
12542;PMS3003;6337;49.556;25.594;2022-09-09T11:11:08;22.80;12.80;
12542;PMS3003;6337;49.556;25.594;2022-09-09T11:13:38;24.23;14.10;
12542;PMS3003;6337;49.556;25.594;2022-09-09T11:16:12;20.47;13.03;
12542;PMS3003;6337;49.556;25.594;2022-09-09T11:18:45;21.90;14.40;
12542;PMS3003;6337;49.556;25.594;2022-09-09T11:21:16;22.53;13.77;
12542;PMS3003;6337;49.556;25.594;2022-09-09T11:23:45;22.97;13.07;
12542;PMS3003;6337;49.556;25.594;2022-09-09T11:26:14;27.80;12.33;
12542;PMS3003;6337;49.556;25.594;2022-09-09T11:28:50;23.53;14.33;
12542;PMS3003;6337;49.556;25.594;2022-09-09T11:31:30;18.93;13.47;
12542;PMS3003;6337;49.556;25.594;2022-09-09T11:34:06;26.20;13.60;
12542;PMS3003;6337;49.556;25.594;2022-09-09T11:36:48;37.43;18.60;
12542;PMS3003;6337;49.556;25.594;2022-09-09T11:39:36;24.83;13.63;
12542;PMS3003;6337;49.556;25.594;2022-09-09T11:42:06;26.17;13.90;
12542;PMS3003;6337;49.556;25.594;2022-09-09T11:44:34;24.63;14.60;
12542;PMS3003;6337;49.556;25.594;2022-09-09T11:47:02;22.03;14.40;
12542;PMS3003;6337;49.556;25.594;2022-09-09T11:49:39;25.07;14.17;
12542;PMS3003;6337;49.556;25.594;2022-09-09T11:52:10;29.13;14.87;
12542;PMS3003;6337;49.556;25.594;2022-09-09T11:54:44;23.27;16.27;
12542;PMS3003;6337;49.556;25.594;2022-09-09T11:57:17;26.13;15.67;
12542;PMS3003;6337;49.556;25.594;2022-09-09T11:59:50;24.33;14.40;
12542;PMS3003;6337;49.556;25.594;2022-09-09T12:02:20;21.90;15.53;
12542;PMS3003;6337;49.556;25.594;2022-09-09T12:04:54;29.67;14.73;
12542;PMS3003;6337;49.556;25.594;2022-09-09T12:07:29;19.90;13.70;
12542;PMS3003;6337;49.556;25.594;2022-09-09T12:09:58;33.07;15.33;
12542;PMS3003;6337;49.556;25.594;2022-09-09T12:12:27;21.27;15.40;
12542;PMS3003;6337;49.556;25.594;2022-09-09T12:14:56;30.47;14.37;
12542;PMS3003;6337;49.556;25.594;2022-09-09T12:17:24;38.77;15.10;
12542;PMS3003;6337;49.556;25.594;2022-09-09T12:20:01;20.23;14.30;
12542;PMS3003;6337;49.556;25.594;2022-09-09T12:22:33;24.70;13.57;
12542;PMS3003;6337;49.556;25.594;2022-09-09T12:25:05;25.30;13.73;
12542;PMS3003;6337;49.556;25.594;2022-09-09T12:27:40;20.03;14.40;
12542;PMS3003;6337;49.556;25.594;2022-09-09T12:30:14;20.47;14.20;
12542;PMS3003;6337;49.556;25.594;2022-09-09T12:32:42;17.77;12.10;
12542;PMS3003;6337;49.556;25.594;2022-09-09T12:35:13;26.43;14.60;
12542;PMS3003;6337;49.556;25.594;2022-09-09T12:37:47;21.53;15.03;
12542;PMS3003;6337;49.556;25.594;2022-09-09T12:40:20;20.90;13.23;
12542;PMS3003;6337;49.556;25.594;2022-09-09T12:42:48;18.47;14.63;
12542;PMS3003;6337;49.556;25.594;2022-09-09T12:45:16;20.97;15.60;
12542;PMS3003;6337;49.556;25.594;2022-09-09T12:47:45;18.97;13.33;
12542;PMS3003;6337;49.556;25.594;2022-09-09T12:50:17;23.17;15.03;
12542;PMS3003;6337;49.556;25.594;2022-09-09T12:52:44;26.43;16.50;
12542;PMS3003;6337;49.556;25.594;2022-09-09T12:55:16;27.13;16.17;
12542;PMS3003;6337;49.556;25.594;2022-09-09T12:57:45;22.00;13.33;
12542;PMS3003;6337;49.556;25.594;2022-09-09T13:00:16;18.30;15.60;
12542;PMS3003;6337;49.556;25.594;2022-09-09T13:02:47;25.53;15.77;
12542;PMS3003;6337;49.556;25.594;2022-09-09T13:05:19;23.83;14.97;
12542;PMS3003;6337;49.556;25.594;2022-09-09T13:07:47;20.63;14.97;
12542;PMS3003;6337;49.556;25.594;2022-09-09T13:10:15;20.97;15.13;
12542;PMS3003;6337;49.556;25.594;2022-09-09T13:12:46;21.60;16.60;
12542;PMS3003;6337;49.556;25.594;2022-09-09T13:15:16;24.23;15.90;
12542;PMS3003;6337;49.556;25.594;2022-09-09T13:17:49;24.83;15.23;
12542;PMS3003;6337;49.556;25.594;2022-09-09T13:20:19;19.43;14.37;
12542;PMS3003;6337;49.556;25.594;2022-09-09T13:22:47;41.33;16.40;
12542;PMS3003;6337;49.556;25.594;2022-09-09T13:25:18;26.10;15.57;
12542;PMS3003;6337;49.556;25.594;2022-09-09T13:28:18;23.63;15.43;
12542;PMS3003;6337;49.556;25.594;2022-09-09T13:30:54;21.80;15.00;
12542;PMS3003;6337;49.556;25.594;2022-09-09T13:33:28;26.97;15.27;
12542;PMS3003;6337;49.556;25.594;2022-09-09T13:36:02;20.53;14.03;
12542;PMS3003;6337;49.556;25.594;2022-09-09T13:38:32;23.70;14.83;
12542;PMS3003;6337;49.556;25.594;2022-09-09T13:41:01;25.87;14.70;
12542;PMS3003;6337;49.556;25.594;2022-09-09T13:43:30;23.00;14.80;
12542;PMS3003;6337;49.556;25.594;2022-09-09T13:46:03;20.70;14.90;
12542;PMS3003;6337;49.556;25.594;2022-09-09T13:48:31;24.83;15.60;
12542;PMS3003;6337;49.556;25.594;2022-09-09T13:51:02;26.10;15.13;
12542;PMS3003;6337;49.556;25.594;2022-09-09T13:53:30;23.27;15.13;
12542;PMS3003;6337;49.556;25.594;2022-09-09T13:55:58;27.77;15.63;
12542;PMS3003;6337;49.556;25.594;2022-09-09T13:58:26;20.13;14.33;
12542;PMS3003;6337;49.556;25.594;2022-09-09T14:00:55;22.07;14.00;
12542;PMS3003;6337;49.556;25.594;2022-09-09T14:03:23;22.53;14.70;
12542;PMS3003;6337;49.556;25.594;2022-09-09T14:05:50;23.70;14.70;
12542;PMS3003;6337;49.556;25.594;2022-09-09T14:11:03;26.53;14.60;
12542;PMS3003;6337;49.556;25.594;2022-09-09T14:13:31;22.50;13.60;
12542;PMS3003;6337;49.556;25.594;2022-09-09T14:15:59;23.10;15.90;
12542;PMS3003;6337;49.556;25.594;2022-09-09T14:18:26;33.60;15.77;
12542;PMS3003;6337;49.556;25.594;2022-09-09T14:20:54;21.60;15.10;
12542;PMS3003;6337;49.556;25.594;2022-09-09T14:23:22;20.43;14.07;
12542;PMS3003;6337;49.556;25.594;2022-09-09T14:25:49;21.30;15.07;
12542;PMS3003;6337;49.556;25.594;2022-09-09T14:28:18;35.53;16.73;
12542;PMS3003;6337;49.556;25.594;2022-09-09T14:30:46;35.10;16.97;
12542;PMS3003;6337;49.556;25.594;2022-09-09T14:33:14;21.40;15.30;
12542;PMS3003;6337;49.556;25.594;2022-09-09T14:35:42;19.80;14.40;
12542;PMS3003;6337;49.556;25.594;2022-09-09T14:38:09;26.03;15.47;
12542;PMS3003;6337;49.556;25.594;2022-09-09T14:40:37;25.30;15.10;
12542;PMS3003;6337;49.556;25.594;2022-09-09T14:43:05;16.93;12.60;
12542;PMS3003;6337;49.556;25.594;2022-09-09T14:45:35;23.90;15.13;
12542;PMS3003;6337;49.556;25.594;2022-09-09T14:48:03;24.13;14.60;
12542;PMS3003;6337;49.556;25.594;2022-09-09T14:50:31;33.60;15.60;
12542;PMS3003;6337;49.556;25.594;2022-09-09T14:52:59;33.93;14.90;
12542;PMS3003;6337;49.556;25.594;2022-09-09T14:55:27;31.63;15.40;
12542;PMS3003;6337;49.556;25.594;2022-09-09T14:57:55;25.10;14.73;
12542;PMS3003;6337;49.556;25.594;2022-09-09T15:00:23;19.20;14.57;
12542;PMS3003;6337;49.556;25.594;2022-09-09T15:02:53;29.97;15.10;
12542;PMS3003;6337;49.556;25.594;2022-09-09T15:05:21;24.43;14.97;
12542;PMS3003;6337;49.556;25.594;2022-09-09T15:07:49;17.73;14.40;
12542;PMS3003;6337;49.556;25.594;2022-09-09T15:10:17;22.50;14.80;
12542;PMS3003;6337;49.556;25.594;2022-09-09T15:12:46;27.87;16.80;
12542;PMS3003;6337;49.556;25.594;2022-09-09T15:15:14;24.17;14.13;
12542;PMS3003;6337;49.556;25.594;2022-09-09T15:17:41;25.70;15.23;
12542;PMS3003;6337;49.556;25.594;2022-09-09T15:20:11;20.80;13.57;
12542;PMS3003;6337;49.556;25.594;2022-09-09T15:22:40;25.23;12.53;
12542;PMS3003;6337;49.556;25.594;2022-09-09T15:25:08;20.27;13.30;
12542;PMS3003;6337;49.556;25.594;2022-09-09T15:27:37;16.50;14.33;